createdAt,value
2022-09-24T00:02:24.475Z,12.10
2022-09-24T00:04:57.320Z,12.73
2022-09-24T00:07:30.033Z,9.57
2022-09-24T00:10:03.134Z,12.60
2022-09-24T00:12:35.824Z,10.43
2022-09-24T00:15:09.163Z,11.83
2022-09-24T00:17:41.932Z,8.73
2022-09-24T00:20:15.207Z,10.00
2022-09-24T00:22:51.037Z,11.53
2022-09-24T00:25:42.477Z,11.20
2022-09-24T00:28:16.115Z,14.10
2022-09-24T00:30:48.871Z,13.53
2022-09-24T00:33:21.700Z,15.97
2022-09-24T00:36:55.493Z,11.93
2022-09-24T00:39:28.312Z,13.10
2022-09-24T00:42:01.113Z,12.97
2022-09-24T00:44:45.712Z,11.57
2022-09-24T00:47:27.531Z,10.33
2022-09-24T00:50:06.311Z,9.17
2022-09-24T00:52:47.149Z,7.10
2022-09-24T00:55:22.083Z,14.83
2022-09-24T00:57:58.788Z,11.40
2022-09-24T01:00:32.069Z,13.93
2022-09-24T01:03:21.093Z,14.80
2022-09-24T01:05:55.192Z,9.47
2022-09-24T01:08:27.980Z,14.57
2022-09-24T01:11:19.138Z,11.50
2022-09-24T01:14:21.178Z,14.23
2022-09-24T01:17:17.142Z,11.30
2022-09-24T01:20:36.330Z,13.40
2022-09-24T01:23:30.514Z,13.27
2022-09-24T01:26:22.488Z,15.13
2022-09-24T01:29:22.127Z,14.37
2022-09-24T01:32:15.947Z,12.87
2022-09-24T01:34:59.587Z,16.87
2022-09-24T01:37:34.468Z,12.87
2022-09-24T01:40:10.586Z,8.40
2022-09-24T01:42:44.982Z,13.13
2022-09-24T01:45:18.805Z,12.20
2022-09-24T01:47:51.674Z,10.83
2022-09-24T01:50:26.485Z,13.27
2022-09-24T01:53:08.434Z,10.60
2022-09-24T01:55:48.071Z,13.90
2022-09-24T01:58:44.994Z,14.20
2022-09-24T02:01:26.415Z,11.77
2022-09-24T02:04:11.932Z,11.77
2022-09-24T02:07:06.221Z,10.33
2022-09-24T02:09:43.811Z,14.00
2022-09-24T02:12:28.068Z,11.73
2022-09-24T02:15:11.662Z,12.20
2022-09-24T02:17:49.780Z,8.87
2022-09-24T02:20:24.480Z,11.67
2022-09-24T02:22:57.556Z,11.98
2022-09-24T02:25:41.706Z,11.20
2022-09-24T02:28:14.600Z,15.53
2022-09-24T02:30:53.662Z,11.20
2022-09-24T02:33:46.828Z,11.97
2022-09-24T02:36:19.844Z,10.43
2022-09-24T02:38:53.075Z,9.10
2022-09-24T02:41:27.424Z,11.53
2022-09-24T02:44:00.260Z,16.83
2022-09-24T02:46:33.129Z,12.97
2022-09-24T02:49:05.886Z,14.27
2022-09-24T02:51:39.215Z,10.57
2022-09-24T02:54:12.038Z,12.53
2022-09-24T02:56:44.786Z,10.23
2022-09-24T02:59:18.680Z,10.33
2022-09-24T03:01:51.576Z,10.27
2022-09-24T03:04:25.232Z,16.27
2022-09-24T03:06:58.091Z,13.57
2022-09-24T03:09:30.940Z,12.17
2022-09-24T03:12:05.014Z,11.77
2022-09-24T03:14:38.224Z,9.93
2022-09-24T03:17:10.861Z,13.40
2022-09-24T03:19:43.494Z,12.77
2022-09-24T03:22:16.347Z,9.23
2022-09-24T03:24:49.053Z,12.13
2022-09-24T03:27:22.007Z,11.53
2022-09-24T03:30:13.353Z,11.00
2022-09-24T03:32:48.020Z,9.30
2022-09-24T03:35:21.240Z,11.40
2022-09-24T03:37:54.132Z,9.80
2022-09-24T03:40:26.835Z,11.80
2022-09-24T03:42:59.695Z,9.47
2022-09-24T03:45:32.500Z,8.57
2022-09-24T03:48:06.467Z,7.97
2022-09-24T03:50:39.469Z,10.53
2022-09-24T03:53:13.128Z,12.80
2022-09-24T03:55:48.282Z,10.03
2022-09-24T03:58:21.203Z,17.60
2022-09-24T04:00:54.787Z,14.80
2022-09-24T04:03:27.694Z,12.27
2022-09-24T04:06:00.566Z,12.47
2022-09-24T04:08:33.526Z,10.90
2022-09-24T04:11:06.434Z,9.83
2022-09-24T04:13:39.149Z,11.30
2022-09-24T04:16:12.075Z,12.23
2022-09-24T04:18:47.866Z,11.13
2022-09-24T04:21:21.332Z,7.00
2022-09-24T04:23:54.053Z,13.97
2022-09-24T04:26:26.798Z,14.20
2022-09-24T04:28:59.666Z,8.90
2022-09-24T04:31:33.366Z,8.63
2022-09-24T04:34:06.291Z,10.33
2022-09-24T04:36:39.047Z,13.83
2022-09-24T04:39:11.876Z,8.17
2022-09-24T04:41:47.042Z,7.10
2022-09-24T04:44:20.291Z,9.80
2022-09-24T04:46:53.027Z,10.90
2022-09-24T04:49:25.875Z,13.67
2022-09-24T04:51:58.547Z,10.20
2022-09-24T04:54:32.169Z,11.97
2022-09-24T04:57:04.814Z,8.73
2022-09-24T04:59:37.568Z,7.43
2022-09-24T05:02:10.652Z,8.93
2022-09-24T05:04:46.204Z,9.17
2022-09-24T05:07:18.990Z,9.47
2022-09-24T05:09:51.819Z,9.23
2022-09-24T05:12:24.463Z,8.70
2022-09-24T05:14:57.209Z,8.27
2022-09-24T05:17:29.935Z,9.93
2022-09-24T05:20:02.787Z,7.83
2022-09-24T05:22:37.335Z,6.43
2022-09-24T05:25:11.426Z,12.80
2022-09-24T05:27:49.141Z,7.87
2022-09-24T05:30:24.217Z,11.43
2022-09-24T05:32:57.176Z,7.57
2022-09-24T05:35:29.895Z,11.23
2022-09-24T05:38:02.693Z,9.37
2022-09-24T05:40:50.485Z,11.30
2022-09-24T05:43:23.741Z,9.67
2022-09-24T05:45:58.551Z,9.63
2022-09-24T05:48:31.323Z,8.93
2022-09-24T05:51:05.324Z,14.00
2022-09-24T05:53:37.980Z,7.97
2022-09-24T05:56:10.800Z,11.30
2022-09-24T05:58:43.524Z,10.13
2022-09-24T06:01:16.716Z,7.97
2022-09-24T06:03:49.352Z,9.20
2022-09-24T06:06:22.625Z,9.67
2022-09-24T06:08:56.183Z,8.03
2022-09-24T06:11:39.799Z,8.07
2022-09-24T06:14:14.199Z,10.10
2022-09-24T06:16:46.891Z,9.70
2022-09-24T06:19:23.470Z,8.67
2022-09-24T06:21:57.409Z,10.70
2022-09-24T06:24:30.370Z,7.27
2022-09-24T06:27:03.085Z,9.33
2022-09-24T06:29:35.838Z,7.87
2022-09-24T06:32:09.177Z,9.40
2022-09-24T06:34:42.064Z,9.63
2022-09-24T06:37:14.776Z,8.03
2022-09-24T06:39:47.549Z,11.27
2022-09-24T06:42:20.779Z,9.33
2022-09-24T06:44:53.540Z,5.40
2022-09-24T06:47:26.535Z,11.40
2022-09-24T06:49:59.260Z,6.13
2022-09-24T06:52:32.283Z,8.03
2022-09-24T06:55:05.574Z,8.70
2022-09-24T06:57:38.261Z,11.80
2022-09-24T07:00:12.405Z,6.93
2022-09-24T07:02:51.450Z,6.40
2022-09-24T07:05:24.308Z,6.37
2022-09-24T07:07:57.003Z,11.60
2022-09-24T07:10:29.913Z,6.80
2022-09-24T07:13:03.123Z,8.73
2022-09-24T07:15:36.005Z,10.83
2022-09-24T07:18:09.232Z,6.47
2022-09-24T07:20:42.137Z,9.67
2022-09-24T07:23:14.842Z,10.57
2022-09-24T07:25:48.397Z,5.83
2022-09-24T07:28:21.068Z,9.70
2022-09-24T07:30:58.555Z,6.60
2022-09-24T07:33:31.874Z,8.50
2022-09-24T07:36:07.111Z,7.80
2022-09-24T07:38:39.971Z,8.17
2022-09-24T07:41:13.067Z,8.07
2022-09-24T07:43:45.791Z,7.70
2022-09-24T07:46:19.999Z,9.10
2022-09-24T07:48:55.968Z,5.40
2022-09-24T07:51:29.599Z,6.10
2022-09-24T07:54:02.405Z,8.10
2022-09-24T07:56:35.322Z,7.67
2022-09-24T07:59:11.028Z,5.23
2022-09-24T08:01:43.817Z,6.33
2022-09-24T08:04:18.153Z,8.10
2022-09-24T08:06:51.268Z,5.87
2022-09-24T08:09:24.134Z,6.50
2022-09-24T08:11:56.901Z,4.57
2022-09-24T08:14:29.668Z,7.57
2022-09-24T08:17:02.865Z,4.00
2022-09-24T08:19:35.551Z,5.37
2022-09-24T08:22:08.602Z,7.17
2022-09-24T08:24:41.903Z,4.90
2022-09-24T08:27:17.337Z,4.63
2022-09-24T08:29:50.624Z,6.80
2022-09-24T08:32:23.463Z,5.53
2022-09-24T08:34:59.665Z,7.30
2022-09-24T08:37:35.254Z,5.37
2022-09-24T08:40:19.003Z,7.03
2022-09-24T08:43:08.037Z,5.63
2022-09-24T08:46:07.867Z,5.27
2022-09-24T08:48:46.597Z,4.93
2022-09-24T08:51:22.025Z,5.00
2022-09-24T08:54:06.037Z,6.13
2022-09-24T08:56:43.975Z,5.75
2022-09-24T08:59:24.113Z,4.95
2022-09-24T09:02:37.194Z,7.63
2022-09-24T09:05:31.819Z,6.07
2022-09-24T09:08:50.587Z,9.10
2022-09-24T09:11:28.115Z,5.88
2022-09-24T09:14:09.696Z,4.00
2022-09-24T09:17:06.624Z,7.28
2022-09-24T09:19:41.668Z,6.57
2022-09-24T09:22:16.840Z,6.30
2022-09-24T09:24:55.993Z,6.32
2022-09-24T09:27:30.873Z,4.25
2022-09-24T09:30:10.531Z,6.75
2022-09-24T09:33:10.360Z,5.13
2022-09-24T09:35:55.397Z,5.07
2022-09-24T09:38:46.920Z,5.77
2022-09-24T09:41:34.738Z,5.23
2022-09-24T09:44:23.825Z,6.68
2022-09-24T09:47:15.248Z,8.07
2022-09-24T09:49:49.973Z,7.85
2022-09-24T09:52:28.435Z,7.25
2022-09-24T09:55:01.146Z,8.07
2022-09-24T09:57:38.562Z,5.00
2022-09-24T10:00:28.164Z,8.32
2022-09-24T10:03:01.156Z,4.25
2022-09-24T10:05:34.827Z,8.00
2022-09-24T10:08:23.875Z,6.30
2022-09-24T10:10:59.040Z,8.48
2022-09-24T10:13:32.485Z,6.40
2022-09-24T10:16:08.814Z,6.50
2022-09-24T10:18:51.079Z,7.55
2022-09-24T10:21:34.346Z,7.53
2022-09-24T10:24:16.392Z,7.97
2022-09-24T10:26:49.901Z,4.53
2022-09-24T10:29:45.363Z,6.57
2022-09-24T10:32:21.626Z,6.75
2022-09-24T10:35:14.949Z,9.40
2022-09-24T10:37:52.966Z,7.45
2022-09-24T10:40:31.509Z,5.97
2022-09-24T10:43:06.025Z,5.43
2022-09-24T10:46:07.767Z,7.65
2022-09-24T10:48:50.172Z,7.43
2022-09-24T10:51:31.478Z,8.57
2022-09-24T10:54:34.285Z,9.52
2022-09-24T10:57:33.143Z,10.77
2022-09-24T11:00:31.362Z,10.50
2022-09-24T11:03:30.236Z,6.17
2022-09-24T11:06:22.699Z,5.20
2022-09-24T11:09:28.581Z,6.47
2022-09-24T11:12:12.043Z,5.47
2022-09-24T11:14:46.518Z,4.90
2022-09-24T11:17:58.923Z,5.40
2022-09-24T11:20:38.007Z,5.93
2022-09-24T11:23:19.438Z,5.07
2022-09-24T11:26:26.993Z,6.50
2022-09-24T11:29:37.023Z,5.00
2022-09-24T11:32:27.719Z,9.40
2022-09-24T11:35:20.957Z,5.82
2022-09-24T11:38:02.228Z,4.43
2022-09-24T11:40:53.619Z,8.07
2022-09-24T11:44:00.786Z,6.88
2022-09-24T11:46:34.202Z,5.35
2022-09-24T11:49:15.821Z,5.72
2022-09-24T11:52:02.510Z,7.30
2022-09-24T11:54:47.619Z,6.05
2022-09-24T11:57:28.588Z,5.55
2022-09-24T12:00:13.668Z,6.70
2022-09-24T12:03:31.208Z,4.40
2022-09-24T12:06:12.878Z,4.25
2022-09-24T12:09:31.688Z,3.97
2022-09-24T12:12:07.789Z,3.67
2022-09-24T12:14:49.885Z,4.80
2022-09-24T12:17:31.309Z,2.90
2022-09-24T12:20:34.883Z,6.35
2022-09-24T12:23:15.058Z,4.28
2022-09-24T12:25:49.495Z,4.38
2022-09-24T12:28:41.786Z,4.63
2022-09-24T12:32:01.886Z,3.67
2022-09-24T12:35:00.404Z,5.15
2022-09-24T12:37:38.539Z,2.55
2022-09-24T12:40:54.204Z,3.58
2022-09-24T12:43:33.814Z,4.35
2022-09-24T12:46:15.182Z,5.22
2022-09-24T12:48:50.081Z,5.15
2022-09-24T12:51:23.977Z,2.90
2022-09-24T12:54:16.863Z,3.53
2022-09-24T12:56:49.779Z,2.92
2022-09-24T12:59:27.179Z,4.60
2022-09-24T13:02:20.987Z,3.50
2022-09-24T13:05:05.276Z,2.88
2022-09-24T13:07:40.830Z,2.80
2022-09-24T13:10:16.369Z,5.60
2022-09-24T13:12:50.501Z,3.42
2022-09-24T13:15:28.496Z,3.95
2022-09-24T13:18:11.098Z,4.53
2022-09-24T13:20:49.963Z,3.78
2022-09-24T13:23:23.067Z,2.45
2022-09-24T13:26:05.202Z,2.25
2022-09-24T13:28:55.182Z,3.47
2022-09-24T13:31:35.230Z,3.17
2022-09-24T13:34:11.037Z,3.57
2022-09-24T13:36:57.629Z,4.07
2022-09-24T13:39:47.375Z,2.40
2022-09-24T13:42:33.333Z,2.15
2022-09-24T13:45:11.546Z,2.67
2022-09-24T13:47:48.248Z,2.78
2022-09-24T13:50:46.374Z,3.42
2022-09-24T13:53:29.634Z,5.07
2022-09-24T13:56:18.036Z,3.30
2022-09-24T13:58:51.596Z,4.88
2022-09-24T14:01:29.912Z,2.92
2022-09-24T14:04:08.369Z,3.15
2022-09-24T14:06:44.787Z,2.20
2022-09-24T14:09:36.071Z,3.92
2022-09-24T14:12:18.818Z,2.97
2022-09-24T14:14:54.853Z,2.33
2022-09-24T14:17:27.561Z,2.72
2022-09-24T14:20:00.416Z,12.40
2022-09-24T14:22:41.331Z,3.63
2022-09-24T14:25:27.329Z,3.13
2022-09-24T14:28:03.206Z,5.35
2022-09-24T14:30:39.123Z,2.72
2022-09-24T14:33:17.708Z,3.85
2022-09-24T14:35:52.971Z,2.60
2022-09-24T14:38:35.187Z,2.42
2022-09-24T14:41:18.866Z,3.47
2022-09-24T14:43:54.560Z,2.65
2022-09-24T14:46:34.291Z,1.90
2022-09-24T14:49:27.506Z,6.28
2022-09-24T14:52:02.434Z,4.05
2022-09-24T14:54:40.209Z,2.58
2022-09-24T14:57:19.011Z,3.28
2022-09-24T14:59:52.503Z,3.22
2022-09-24T15:02:29.800Z,5.43
2022-09-24T15:05:06.683Z,3.53
2022-09-24T15:07:39.909Z,2.85
2022-09-24T15:10:22.174Z,4.57
2022-09-24T15:12:54.872Z,4.07
2022-09-24T15:15:30.616Z,7.43
2022-09-24T15:18:03.847Z,5.93
2022-09-24T15:20:37.084Z,5.82
2022-09-24T15:23:09.881Z,7.65
2022-09-24T15:25:43.609Z,3.50
2022-09-24T15:28:16.700Z,4.38
2022-09-24T15:30:49.472Z,3.15
2022-09-24T15:33:22.398Z,4.32
2022-09-24T15:35:55.098Z,4.22
2022-09-24T15:38:27.811Z,3.47
2022-09-24T15:41:00.606Z,5.05
2022-09-24T15:43:33.394Z,13.60
2022-09-24T15:46:06.279Z,5.07
2022-09-24T15:48:39.123Z,5.00
2022-09-24T15:51:15.574Z,5.30
2022-09-24T15:53:50.322Z,4.97
2022-09-24T15:56:23.043Z,4.90
2022-09-24T15:58:56.070Z,5.07
2022-09-24T16:01:28.792Z,11.27
2022-09-24T16:04:01.962Z,8.98
2022-09-24T16:06:34.813Z,6.72
2022-09-24T16:09:07.575Z,4.72
2022-09-24T16:11:40.309Z,5.90
2022-09-24T16:14:14.172Z,6.22
2022-09-24T16:16:46.821Z,18.38
2022-09-24T16:19:19.871Z,7.70
2022-09-24T16:21:53.120Z,5.53
2022-09-24T16:24:26.092Z,4.07
2022-09-24T16:26:59.424Z,4.72
2022-09-24T16:29:32.163Z,5.10
2022-09-24T16:32:05.056Z,5.50
2022-09-24T16:34:37.798Z,11.80
2022-09-24T16:37:10.566Z,4.18
2022-09-24T16:39:43.814Z,4.90
2022-09-24T16:42:16.570Z,5.93
2022-09-24T16:44:49.265Z,6.73
2022-09-24T16:47:22.029Z,4.30
2022-09-24T16:49:54.711Z,7.70
2022-09-24T16:52:31.461Z,6.72
2022-09-24T16:55:04.700Z,5.50
2022-09-24T16:57:38.329Z,3.35
2022-09-24T17:00:11.781Z,3.93
2022-09-24T17:02:44.530Z,3.83
2022-09-24T17:05:17.455Z,6.43
2022-09-24T17:07:50.161Z,4.10
2022-09-24T17:10:24.074Z,4.47
2022-09-24T17:12:57.766Z,11.53
2022-09-24T17:15:30.450Z,13.70
2022-09-24T17:18:03.184Z,21.37
2022-09-24T17:20:35.966Z,9.80
2022-09-24T17:23:08.639Z,5.60
2022-09-24T17:25:41.304Z,5.03
2022-09-24T17:28:14.111Z,6.10
2022-09-24T17:30:46.836Z,4.23
2022-09-24T17:33:41.789Z,4.80
2022-09-24T17:36:14.116Z,10.10
2022-09-24T17:38:47.045Z,7.17
2022-09-24T17:41:19.987Z,4.03
2022-09-24T17:43:52.784Z,7.07
2022-09-24T17:46:27.667Z,8.60
2022-09-24T17:49:00.733Z,6.33
2022-09-24T17:51:36.246Z,5.27
2022-09-24T17:54:12.228Z,5.20
2022-09-24T17:56:45.355Z,7.80
2022-09-24T17:59:20.066Z,8.33
2022-09-24T18:01:55.835Z,11.33
2022-09-24T18:04:31.121Z,10.63
2022-09-24T18:07:03.833Z,10.30
2022-09-24T18:09:36.658Z,10.57
2022-09-24T18:12:13.476Z,12.47
2022-09-24T18:14:49.162Z,8.53
2022-09-24T18:17:21.887Z,8.00
2022-09-24T18:19:54.698Z,5.80
2022-09-24T18:22:27.731Z,5.33
2022-09-24T18:25:05.618Z,8.77
2022-09-24T18:27:38.535Z,7.43
2022-09-24T18:30:11.623Z,6.30
2022-09-24T18:32:47.432Z,5.90
2022-09-24T18:35:20.097Z,4.97
2022-09-24T18:37:52.894Z,6.10
2022-09-24T18:40:25.703Z,7.33
2022-09-24T18:42:58.579Z,8.70
2022-09-24T18:45:31.362Z,6.23
2022-09-24T18:48:04.264Z,7.07
2022-09-24T18:50:43.278Z,6.60
2022-09-24T18:53:16.019Z,5.20
2022-09-24T18:55:48.702Z,6.43
2022-09-24T18:58:21.555Z,5.97
2022-09-24T19:01:02.118Z,7.13
2022-09-24T19:03:36.439Z,7.13
2022-09-24T19:06:11.852Z,7.27
2022-09-24T19:08:44.980Z,7.23
2022-09-24T19:11:18.271Z,7.47
2022-09-24T19:13:53.315Z,6.57
2022-09-24T19:16:26.164Z,4.83
2022-09-24T19:19:00.623Z,7.20
2022-09-24T19:21:33.449Z,6.20
2022-09-24T19:24:06.989Z,8.33
2022-09-24T19:26:39.866Z,6.70
2022-09-24T19:29:13.007Z,7.20
2022-09-24T19:31:45.916Z,7.93
2022-09-24T19:34:20.834Z,7.53
2022-09-24T19:36:54.878Z,7.30
2022-09-24T19:39:27.625Z,8.43
2022-09-24T19:42:00.642Z,6.97
2022-09-24T19:44:33.400Z,6.10
2022-09-24T19:47:08.115Z,6.63
2022-09-24T19:49:40.865Z,5.70
2022-09-24T19:52:13.501Z,7.00
2022-09-24T19:54:49.444Z,6.83
2022-09-24T19:57:22.200Z,7.77
2022-09-24T19:59:54.976Z,6.67
2022-09-24T20:02:29.994Z,6.23
2022-09-24T20:05:02.962Z,7.83
2022-09-24T20:07:35.878Z,7.20
2022-09-24T20:10:09.638Z,7.30
2022-09-24T20:12:46.436Z,7.37
2022-09-24T20:15:19.228Z,5.80
2022-09-24T20:17:53.565Z,7.87
2022-09-24T20:20:26.455Z,7.33
2022-09-24T20:22:59.716Z,5.40
2022-09-24T20:25:51.008Z,6.60
2022-09-24T20:28:23.795Z,9.00
2022-09-24T20:30:56.593Z,7.90
2022-09-24T20:33:30.819Z,6.83
2022-09-24T20:36:04.540Z,9.00
2022-09-24T20:38:43.933Z,6.03
2022-09-24T20:41:22.087Z,6.93
2022-09-24T20:43:57.664Z,6.43
2022-09-24T20:46:30.437Z,7.23
2022-09-24T20:49:03.330Z,7.57
2022-09-24T20:51:37.130Z,8.37
2022-09-24T20:54:11.091Z,8.63
2022-09-24T20:56:44.126Z,6.70
2022-09-24T20:59:17.032Z,7.57
2022-09-24T21:01:49.930Z,8.00
2022-09-24T21:04:23.416Z,9.17
2022-09-24T21:06:56.223Z,6.90
2022-09-24T21:09:29.941Z,7.83
2022-09-24T21:12:03.515Z,8.47
2022-09-24T21:14:36.509Z,8.40
2022-09-24T21:17:10.056Z,7.27
2022-09-24T21:19:42.874Z,7.13
2022-09-24T21:22:15.667Z,9.57
2022-09-24T21:24:52.134Z,7.27
2022-09-24T21:27:24.887Z,7.10
2022-09-24T21:29:57.613Z,7.85
2022-09-24T21:32:30.292Z,7.93
2022-09-24T21:35:03.116Z,8.20
2022-09-24T21:37:35.865Z,8.33
2022-09-24T21:40:10.409Z,7.60
2022-09-24T21:42:43.316Z,7.37
2022-09-24T21:45:16.046Z,8.30
2022-09-24T21:47:48.857Z,8.27
2022-09-24T21:50:21.656Z,6.33
2022-09-24T21:52:54.285Z,8.30
2022-09-24T21:55:27.010Z,6.27
2022-09-24T21:57:59.813Z,8.10
2022-09-24T22:00:32.939Z,6.40
2022-09-24T22:03:05.684Z,8.17
2022-09-24T22:05:43.701Z,7.77
2022-09-24T22:08:16.500Z,9.07
2022-09-24T22:10:49.749Z,6.70
2022-09-24T22:13:23.033Z,9.00
2022-09-24T22:15:57.576Z,8.95
2022-09-24T22:18:30.348Z,8.50
2022-09-24T22:21:08.832Z,8.73
2022-09-24T22:23:41.611Z,8.37
2022-09-24T22:26:14.750Z,8.03
2022-09-24T22:28:47.657Z,7.93
2022-09-24T22:31:20.744Z,8.30
2022-09-24T22:34:12.442Z,6.30
2022-09-24T22:36:45.267Z,8.03
2022-09-24T22:39:17.952Z,7.97
2022-09-24T22:41:52.439Z,7.93
2022-09-24T22:44:25.134Z,8.37
2022-09-24T22:46:57.855Z,11.43
2022-09-24T22:49:32.504Z,8.43
2022-09-24T22:52:05.187Z,7.47
2022-09-24T22:54:37.970Z,9.27
2022-09-24T22:57:10.633Z,8.97
2022-09-24T22:59:43.262Z,10.90
2022-09-24T23:02:15.909Z,8.00
2022-09-24T23:04:48.576Z,7.60
2022-09-24T23:07:22.507Z,9.03
2022-09-24T23:09:55.146Z,8.63
2022-09-24T23:12:34.283Z,8.40
2022-09-24T23:15:07.700Z,8.47
2022-09-24T23:17:40.577Z,9.37
2022-09-24T23:20:14.351Z,6.60
2022-09-24T23:22:47.324Z,6.73
2022-09-24T23:25:20.015Z,7.97
2022-09-24T23:27:52.699Z,6.83
2022-09-24T23:30:26.107Z,6.90
2022-09-24T23:32:58.988Z,7.67
2022-09-24T23:35:31.686Z,6.17
2022-09-24T23:38:04.526Z,7.60
2022-09-24T23:40:37.234Z,8.77
2022-09-24T23:43:10.148Z,8.67
2022-09-24T23:45:42.901Z,7.13
2022-09-24T23:48:16.233Z,8.30
2022-09-24T23:50:49.566Z,7.70
2022-09-24T23:53:22.316Z,7.70
2022-09-24T23:55:55.317Z,7.43
2022-09-24T23:58:28.098Z,6.77
